Time;durP1;ratioP1;P1;durP2;ratioP2;P2;SDS_P1;SDS_P2;PMS_P1;PMS_P2;Temp;Humidity;BMP_temperature;BMP_pressure;BME280_temperature;BME280_humidity;BME280_pressure;Samples;Min_cycle;Max_cycle;Signal;HPM_P1;HPM_P2
2022/01/24 00:01:29;;;;;;;19.02;9.23;;;-1.60;69.80;;;;;;5055518;28;20065;-34
2022/01/24 00:03:58;;;;;;;20.98;9.82;;;-1.60;69.90;;;;;;5055543;28;20041;-35
2022/01/24 00:06:25;;;;;;;19.48;9.38;;;-1.60;69.80;;;;;;5055459;28;20036;-40
2022/01/24 00:08:50;;;;;;;17.88;8.73;;;-1.60;69.90;;;;;;5055591;28;20029;-37
2022/01/24 00:11:21;;;;;;;35.05;16.98;;;-1.60;70.00;;;;;;5055438;28;20113;-40
2022/01/24 00:16:46;;;;;;;20.77;9.52;;;-1.60;69.80;;;;;;5055157;28;20340;-35
2022/01/24 00:27:10;;;;;;;22.60;10.23;;;-1.60;69.90;;;;;;5055297;28;20040;-41
2022/01/24 00:29:35;;;;;;;28.48;12.43;;;-1.60;69.90;;;;;;5055510;28;20029;-35
2022/01/24 00:32:01;;;;;;;39.97;16.80;;;-1.50;69.90;;;;;;5055459;28;20104;-35
2022/01/24 00:34:27;;;;;;;22.55;10.13;;;-1.60;69.80;;;;;;5059096;28;20119;-34
2022/01/24 00:36:53;;;;;;;45.25;19.10;;;-1.60;69.80;;;;;;5058871;28;20329;-38
2022/01/24 00:39:23;;;;;;;24.95;12.02;;;-1.50;70.00;;;;;;5058796;28;20037;-34
2022/01/24 00:46:51;;;;;;;19.27;9.30;;;-1.50;69.90;;;;;;5058644;28;20499;-34
2022/01/24 00:56:53;;;;;;;19.38;9.85;;;-1.60;69.40;;;;;;5058811;28;20025;-38
2022/01/24 00:59:18;;;;;;;21.55;9.85;;;-1.60;69.60;;;;;;5058450;28;20033;-39
2022/01/24 01:01:44;;;;;;;18.67;9.93;;;-1.60;69.60;;;;;;5058299;28;20037;-39
2022/01/24 01:04:10;;;;;;;24.10;8.88;;;-1.60;69.60;;;;;;5057994;28;20045;-37
2022/01/24 01:06:38;;;;;;;25.15;9.50;;;-1.60;69.60;;;;;;5057885;28;20068;-39
2022/01/24 01:20:00;;;;;;;18.25;8.65;;;-1.70;69.60;;;;;;5058241;28;20035;-36
2022/01/24 01:22:26;;;;;;;18.77;8.48;;;-1.80;69.60;;;;;;5058016;28;20033;-38
2022/01/24 01:24:54;;;;;;;25.63;11.70;;;-1.80;69.80;;;;;;5058397;28;20025;-37
2022/01/24 01:27:29;;;;;;;19.98;8.75;;;-1.80;70.00;;;;;;5058120;28;20033;-41
2022/01/24 01:30:03;;;;;;;19.95;8.68;;;-1.90;70.10;;;;;;5057586;28;20049;-35
2022/01/24 01:37:48;;;;;;;22.27;8.90;;;-1.90;70.10;;;;;;5057793;28;20325;-35
2022/01/24 01:56:06;;;;;;;19.65;9.23;;;-2.00;70.10;;;;;;5057445;28;20043;-34
2022/01/24 01:58:32;;;;;;;13.30;7.53;;;-2.00;70.00;;;;;;5057542;28;20033;-35
2022/01/24 02:01:00;;;;;;;19.38;8.75;;;-2.00;70.00;;;;;;5057110;28;20033;-40
2022/01/24 02:03:27;;;;;;;16.30;8.15;;;-2.00;69.90;;;;;;5057307;28;20361;-35
2022/01/24 02:05:54;;;;;;;17.23;8.93;;;-2.00;70.00;;;;;;5057063;28;20041;-39
2022/01/24 02:08:23;;;;;;;17.33;8.40;;;-2.00;70.10;;;;;;5057042;28;20040;-41
2022/01/24 02:10:49;;;;;;;12.10;7.57;;;-2.00;70.10;;;;;;5056760;28;20040;-39
2022/01/24 02:13:15;;;;;;;15.02;8.23;;;-2.00;70.10;;;;;;5056973;28;20033;-40
2022/01/24 02:15:54;;;;;;;14.35;7.57;;;-2.00;70.00;;;;;;5057056;28;20033;-40
2022/01/24 02:25:59;;;;;;;17.98;7.82;;;-2.00;70.00;;;;;;5056923;28;20037;-37
2022/01/24 02:28:29;;;;;;;14.57;7.05;;;-2.00;69.80;;;;;;5057014;28;20037;-35
2022/01/24 02:33:43;;;;;;;13.98;7.20;;;-2.10;69.60;;;;;;5056811;28;20432;-37
2022/01/24 02:36:10;;;;;;;17.08;7.25;;;-2.10;69.70;;;;;;5056722;28;20053;-39
2022/01/24 02:49:34;;;;;;;10.80;6.68;;;-2.10;70.00;;;;;;5056431;28;20353;-39
2022/01/24 02:52:03;;;;;;;17.98;8.13;;;-2.10;70.00;;;;;;5056560;28;20033;-35
2022/01/24 02:54:30;;;;;;;12.50;6.78;;;-2.00;70.00;;;;;;5056120;28;20488;-34
2022/01/24 02:56:55;;;;;;;12.50;7.25;;;-2.10;69.80;;;;;;5056105;28;20036;-40
2022/01/24 02:59:22;;;;;;;15.90;7.57;;;-2.10;69.70;;;;;;5056348;28;20025;-39
2022/01/24 03:01:47;;;;;;;20.30;8.18;;;-2.10;69.60;;;;;;5056472;28;20095;-41
2022/01/24 03:04:14;;;;;;;21.95;7.60;;;-2.10;69.60;;;;;;5056139;28;20041;-34
2022/01/24 03:06:40;;;;;;;13.90;7.22;;;-2.10;69.70;;;;;;5056261;28;20112;-39
2022/01/24 03:09:07;;;;;;;15.60;7.65;;;-2.20;69.60;;;;;;5056392;28;20044;-34
2022/01/24 03:14:21;;;;;;;15.80;6.93;;;-2.20;69.50;;;;;;5056272;28;20112;-40
2022/01/24 03:16:48;;;;;;;15.35;7.70;;;-2.20;69.70;;;;;;5056019;28;20025;-37
2022/01/24 03:19:15;;;;;;;15.05;8.15;;;-2.20;69.70;;;;;;5056274;28;20406;-36
2022/01/24 03:21:42;;;;;;;14.80;7.65;;;-2.20;69.90;;;;;;5056162;28;20428;-39
2022/01/24 03:24:08;;;;;;;15.38;7.60;;;-2.10;69.90;;;;;;5055977;28;20061;-34
2022/01/24 03:26:33;;;;;;;20.85;8.55;;;-2.20;69.80;;;;;;5055753;28;20060;-40
2022/01/24 03:28:59;;;;;;;14.95;7.03;;;-2.20;69.60;;;;;;5055739;28;20033;-39
2022/01/24 03:31:25;;;;;;;19.33;7.05;;;-2.20;69.40;;;;;;5055596;28;20037;-33
2022/01/24 03:33:51;;;;;;;15.15;7.50;;;-2.30;69.40;;;;;;5056162;28;20040;-39
2022/01/24 03:36:16;;;;;;;18.48;7.85;;;-2.30;69.40;;;;;;5055732;28;20108;-40
2022/01/24 03:38:42;;;;;;;17.98;7.95;;;-2.30;69.50;;;;;;5055781;28;20325;-32
2022/01/24 03:41:08;;;;;;;17.27;8.02;;;-2.40;69.60;;;;;;5055512;28;20104;-36
2022/01/24 03:43:34;;;;;;;18.27;8.30;;;-2.40;69.70;;;;;;5055586;28;20028;-39
2022/01/24 03:48:40;;;;;;;16.58;7.82;;;-2.40;70.00;;;;;;5055996;28;20044;-36
2022/01/24 03:51:07;;;;;;;17.45;8.63;;;-2.40;70.10;;;;;;5055665;28;20302;-35
2022/01/24 03:53:33;;;;;;;20.67;9.77;;;-2.40;70.10;;;;;;5055746;28;20028;-38
2022/01/24 03:55:59;;;;;;;16.85;8.10;;;-2.40;70.10;;;;;;5055422;28;20365;-35
2022/01/24 03:58:24;;;;;;;17.38;8.00;;;-2.40;70.20;;;;;;5055586;28;20029;-35
2022/01/24 04:00:50;;;;;;;19.90;8.23;;;-2.50;70.20;;;;;;5055378;28;20413;-37
2022/01/24 04:03:17;;;;;;;15.38;6.70;;;-2.50;70.50;;;;;;5055849;28;20049;-34
2022/01/24 05:09:54;;;;;;;17.02;7.97;;;-4.00;72.10;;;;;;5155570;27;20362;-39
2022/01/24 05:21:22;;;;;;;15.55;8.27;;;-2.60;74.10;;;;;;5155031;27;20027;-37
2022/01/24 05:25:59;;;;;;;17.05;7.78;;;-2.50;73.40;;;;;;5154983;27;20019;-35
2022/01/24 05:28:26;;;;;;;17.48;9.02;;;-2.50;73.30;;;;;;5154043;27;20035;-35
2022/01/24 05:30:52;;;;;;;18.83;8.63;;;-2.40;73.20;;;;;;5154411;27;20031;-37
2022/01/24 05:33:18;;;;;;;25.80;11.40;;;-2.40;73.10;;;;;;5154758;27;20087;-39
2022/01/24 05:35:44;;;;;;;18.77;8.68;;;-2.40;72.90;;;;;;5154497;27;20118;-36
2022/01/24 05:38:10;;;;;;;13.95;7.43;;;-2.40;72.60;;;;;;5153838;27;20323;-35
2022/01/24 05:40:37;;;;;;;14.40;8.00;;;-2.40;72.40;;;;;;5154362;27;20148;-40
2022/01/24 05:43:02;;;;;;;15.00;7.68;;;-2.40;72.30;;;;;;5154424;27;20051;-40
2022/01/24 05:45:28;;;;;;;13.20;7.80;;;-2.40;72.00;;;;;;5154104;27;20049;-40
2022/01/24 05:47:54;;;;;;;16.42;7.38;;;-2.40;72.00;;;;;;5162175;27;20040;-35
2022/01/24 05:50:20;;;;;;;15.93;7.80;;;-2.30;72.60;;;;;;5174925;27;20022;-39
2022/01/24 05:52:45;;;;;;;13.10;6.82;;;-2.30;72.00;;;;;;5174338;27;20334;-35
2022/01/24 05:55:12;;;;;;;12.10;6.70;;;-2.30;71.70;;;;;;5174741;27;20279;-34
2022/01/24 05:57:38;;;;;;;16.63;7.93;;;-2.30;71.70;;;;;;5174643;27;20074;-35
2022/01/24 06:00:12;;;;;;;12.13;6.72;;;-2.20;71.60;;;;;;5174666;27;20054;-35
2022/01/24 06:02:38;;;;;;;13.25;6.95;;;-2.20;71.40;;;;;;5174347;27;20033;-39
2022/01/24 06:05:04;;;;;;;12.88;7.20;;;-2.20;71.30;;;;;;5174738;27;20410;-37
2022/01/24 06:07:30;;;;;;;12.27;6.95;;;-2.20;70.90;;;;;;5174386;27;20026;-36
2022/01/24 06:09:56;;;;;;;11.38;7.20;;;-2.20;70.70;;;;;;5165168;27;20414;-41
2022/01/24 06:12:22;;;;;;;16.83;7.55;;;-2.30;70.60;;;;;;5160620;27;20035;-35
2022/01/24 06:14:48;;;;;;;14.57;6.50;;;-2.20;70.60;;;;;;5160833;27;20034;-39
2022/01/24 06:17:15;;;;;;;14.30;7.68;;;-2.20;70.60;;;;;;5160556;27;20031;-38
2022/01/24 06:19:40;;;;;;;15.57;6.68;;;-2.20;70.70;;;;;;5160303;27;20021;-35
2022/01/24 06:22:06;;;;;;;12.57;6.75;;;-2.20;70.70;;;;;;5160340;27;20106;-41
2022/01/24 06:24:32;;;;;;;14.55;7.53;;;-2.20;70.70;;;;;;5160017;27;20075;-35
2022/01/24 06:26:57;;;;;;;13.65;6.85;;;-2.10;70.70;;;;;;5160180;27;20019;-35
2022/01/24 06:29:23;;;;;;;10.95;6.28;;;-2.10;70.20;;;;;;5159792;27;20023;-36
2022/01/24 06:31:48;;;;;;;14.18;7.38;;;-2.10;70.20;;;;;;5159764;27;20406;-35
2022/01/24 06:34:14;;;;;;;11.10;6.22;;;-2.10;70.10;;;;;;5159904;27;20025;-41
2022/01/24 06:36:40;;;;;;;14.90;7.30;;;-2.10;69.70;;;;;;5160080;27;20022;-35
2022/01/24 06:39:06;;;;;;;11.15;6.57;;;-2.10;69.70;;;;;;5160155;27;20030;-40
2022/01/24 06:41:35;;;;;;;12.73;6.30;;;-2.10;69.80;;;;;;5160455;27;20027;-40
2022/01/24 06:44:02;;;;;;;11.82;7.13;;;-2.10;69.60;;;;;;5160331;27;20425;-37
2022/01/24 06:46:27;;;;;;;14.90;6.95;;;-2.10;69.40;;;;;;5158000;27;20031;-41
2022/01/24 06:48:53;;;;;;;13.40;6.90;;;-2.20;69.40;;;;;;5151727;27;20176;-41
2022/01/24 06:51:20;;;;;;;12.73;6.32;;;-2.10;69.60;;;;;;5138771;27;20038;-35
2022/01/24 06:53:47;;;;;;;13.73;6.93;;;-2.10;69.60;;;;;;5152167;27;20037;-39
2022/01/24 06:56:13;;;;;;;15.85;6.95;;;-2.10;69.60;;;;;;5154387;27;20027;-39
2022/01/24 06:58:39;;;;;;;12.75;7.20;;;-2.10;69.60;;;;;;5159589;27;20033;-34
2022/01/24 07:01:05;;;;;;;15.40;7.38;;;-2.10;69.50;;;;;;5159435;27;20436;-41
2022/01/24 07:03:31;;;;;;;16.15;6.97;;;-2.10;69.60;;;;;;5159207;27;20041;-35
2022/01/24 07:05:57;;;;;;;18.08;8.00;;;-2.00;69.50;;;;;;5159297;27;20021;-36
2022/01/24 07:08:22;;;;;;;18.63;8.07;;;-2.00;69.40;;;;;;5159142;27;20080;-38
2022/01/24 07:10:48;;;;;;;15.82;7.63;;;-2.00;69.50;;;;;;5159559;27;20038;-37
2022/01/24 07:13:14;;;;;;;26.70;9.35;;;-2.00;69.40;;;;;;5159582;27;20046;-34
2022/01/24 07:15:50;;;;;;;14.50;7.95;;;-1.90;70.10;;;;;;5158954;27;20026;-38
2022/01/24 07:20:55;;;;;;;16.23;8.23;;;-1.80;69.20;;;;;;5158270;27;20264;-42
2022/01/24 07:23:20;;;;;;;35.90;19.10;;;-1.70;68.90;;;;;;5158624;27;20027;-37
2022/01/24 07:25:46;;;;;;;20.55;8.38;;;-1.70;69.00;;;;;;5158915;27;20029;-35
2022/01/24 07:28:13;;;;;;;29.80;12.38;;;-1.70;68.70;;;;;;5159160;27;20034;-36
2022/01/24 07:30:39;;;;;;;17.50;9.07;;;-1.60;68.60;;;;;;5158968;27;20051;-39
2022/01/24 07:33:04;;;;;;;28.55;11.90;;;-1.60;68.40;;;;;;5158486;27;20073;-37
2022/01/24 07:35:30;;;;;;;99.53;29.15;;;-1.60;68.40;;;;;;5158775;27;20299;-40
2022/01/24 07:37:56;;;;;;;47.45;22.08;;;-1.60;68.30;;;;;;5158928;27;20049;-35
2022/01/24 07:40:22;;;;;;;62.42;35.15;;;-1.50;68.30;;;;;;5158555;27;20026;-38
2022/01/24 07:45:33;;;;;;;21.98;9.75;;;-1.40;68.00;;;;;;5158209;27;20041;-36
2022/01/24 07:47:58;;;;;;;256.77;105.40;;;-1.40;67.80;;;;;;5158735;27;20031;-40
2022/01/24 07:50:26;;;;;;;34.08;14.13;;;-1.40;67.80;;;;;;5158441;27;20180;-36
2022/01/24 07:52:53;;;;;;;24.55;13.65;;;-1.30;67.90;;;;;;5158291;27;20035;-38
2022/01/24 07:55:18;;;;;;;450.30;216.73;;;-1.30;67.80;;;;;;5145652;27;20434;-35
2022/01/24 07:57:44;;;;;;;492.52;252.18;;;-1.30;67.80;;;;;;5118922;27;20031;-35
2022/01/24 08:00:11;;;;;;;19.88;9.93;;;-1.20;67.80;;;;;;5137476;27;20088;-40
2022/01/24 08:02:37;;;;;;;41.53;21.45;;;-1.20;67.50;;;;;;5137069;27;20046;-41
2022/01/24 08:05:03;;;;;;;22.05;10.85;;;-1.10;67.20;;;;;;5137248;27;20037;-40
2022/01/24 08:07:29;;;;;;;33.72;15.55;;;-1.20;67.00;;;;;;5136990;27;20031;-41
2022/01/24 08:09:55;;;;;;;112.82;68.90;;;-1.20;67.20;;;;;;5118434;27;20368;-35
2022/01/24 08:12:20;;;;;;;126.75;80.03;;;-1.10;67.10;;;;;;5118216;27;20118;-33
2022/01/24 08:14:46;;;;;;;38.00;24.55;;;-1.10;67.00;;;;;;5137005;27;20031;-35
2022/01/24 08:17:11;;;;;;;31.33;14.38;;;-1.00;67.10;;;;;;5136722;27;20039;-33
2022/01/24 08:19:37;;;;;;;21.25;9.93;;;-1.00;67.30;;;;;;5136195;27;20115;-34
2022/01/24 08:22:04;;;;;;;19.80;9.90;;;-0.90;67.10;;;;;;5137013;27;20035;-34
2022/01/24 08:24:30;;;;;;;15.23;8.52;;;-0.90;66.70;;;;;;5136507;27;20034;-33
2022/01/24 08:26:55;;;;;;;16.35;8.68;;;-0.90;66.40;;;;;;5136855;27;20019;-32
2022/01/24 08:29:21;;;;;;;21.88;10.52;;;-1.00;66.40;;;;;;5136227;27;20096;-33
2022/01/24 08:31:47;;;;;;;20.90;10.32;;;-1.00;66.50;;;;;;5136546;27;20038;-36
2022/01/24 08:34:12;;;;;;;22.58;10.15;;;-1.00;66.50;;;;;;5136659;27;20035;-33
2022/01/24 08:36:38;;;;;;;17.95;9.63;;;-1.10;66.30;;;;;;5136522;27;20049;-35
2022/01/24 08:39:08;;;;;;;18.42;9.18;;;-1.10;66.60;;;;;;5136968;27;20038;-34
2022/01/24 08:42:10;;;;;;;18.83;9.93;;;-1.10;66.70;;;;;;5136782;27;20426;-34
2022/01/24 08:47:05;;;;;;;18.75;9.77;;;-1.20;67.10;;;;;;5148112;27;20029;-34
2022/01/24 08:49:31;;;;;;;16.55;9.15;;;-1.20;67.10;;;;;;5157143;27;20406;-36
2022/01/24 08:51:59;;;;;;;17.80;9.45;;;-1.20;67.20;;;;;;5157222;27;20018;-34
2022/01/24 08:54:25;;;;;;;22.08;9.93;;;-1.20;67.40;;;;;;5156923;27;20304;-34
2022/01/24 08:56:51;;;;;;;19.55;9.70;;;-1.20;67.50;;;;;;5138651;27;20030;-33
2022/01/24 08:59:17;;;;;;;16.48;9.15;;;-1.20;67.50;;;;;;5156957;27;20026;-34
2022/01/24 09:01:43;;;;;;;43.92;22.15;;;-1.10;67.80;;;;;;5156603;27;20025;-34
2022/01/24 09:04:09;;;;;;;23.05;12.90;;;-1.10;67.90;;;;;;5156501;27;20043;-33
2022/01/24 09:06:35;;;;;;;25.75;11.98;;;-1.00;68.00;;;;;;5156619;27;20027;-33
2022/01/24 09:09:04;;;;;;;26.65;11.10;;;-0.90;67.60;;;;;;5156815;27;20050;-34
2022/01/24 09:11:32;;;;;;;19.80;10.88;;;-0.90;67.30;;;;;;5156791;27;20106;-34
2022/01/24 09:13:58;;;;;;;20.40;10.27;;;-0.80;67.30;;;;;;5157245;27;20026;-33
2022/01/24 09:16:24;;;;;;;20.20;9.77;;;-0.80;67.10;;;;;;5156648;27;20410;-34
2022/01/24 09:18:51;;;;;;;18.55;10.07;;;-0.80;67.40;;;;;;5157364;27;20116;-33
2022/01/24 09:21:17;;;;;;;22.17;10.38;;;-0.70;67.40;;;;;;5156760;27;20023;-33
2022/01/24 09:23:43;;;;;;;20.73;10.30;;;-0.70;67.10;;;;;;5157161;27;20382;-33
2022/01/24 09:26:08;;;;;;;22.35;10.90;;;-0.60;67.00;;;;;;5156291;27;20018;-33
2022/01/24 09:28:34;;;;;;;29.95;17.05;;;-0.60;67.00;;;;;;5157198;27;20121;-33
2022/01/24 09:31:00;;;;;;;39.13;23.13;;;-0.60;67.30;;;;;;5156575;27;20031;-33
2022/01/24 09:33:27;;;;;;;19.40;10.02;;;-0.60;67.20;;;;;;5156697;27;20398;-33
2022/01/24 09:35:58;;;;;;;24.83;10.77;;;-0.60;67.00;;;;;;5156787;27;20030;-33
2022/01/24 09:38:30;;;;;;;26.65;11.02;;;-0.60;66.90;;;;;;5157044;27;20038;-34
2022/01/24 09:40:57;;;;;;;17.70;9.75;;;-0.60;66.90;;;;;;5156513;27;20026;-33
2022/01/24 09:43:22;;;;;;;30.55;15.00;;;-0.60;66.70;;;;;;5157029;27;20109;-33
2022/01/24 09:45:48;;;;;;;24.38;12.82;;;-0.60;66.90;;;;;;5159593;27;20062;-33
2022/01/24 09:48:16;;;;;;;21.27;11.18;;;-0.60;66.90;;;;;;5152589;27;20038;-33
2022/01/24 09:50:42;;;;;;;24.88;11.52;;;-0.60;67.00;;;;;;5144136;27;20053;-32
2022/01/24 09:53:08;;;;;;;23.73;11.95;;;-0.70;66.60;;;;;;5159650;27;20038;-33
2022/01/24 09:55:34;;;;;;;23.65;12.27;;;-0.70;66.70;;;;;;5160401;27;20026;-32
2022/01/24 09:58:00;;;;;;;23.88;11.57;;;-0.70;66.60;;;;;;5160731;27;20027;-33
2022/01/24 10:00:28;;;;;;;22.30;11.70;;;-0.80;66.70;;;;;;5160395;27;20465;-34
2022/01/24 10:02:55;;;;;;;23.15;11.75;;;-0.80;66.80;;;;;;5160587;27;20037;-34
2022/01/24 10:05:37;;;;;;;25.17;12.50;;;-0.80;66.90;;;;;;5160124;27;20295;-33
2022/01/24 10:08:05;;;;;;;30.02;15.52;;;-0.70;67.10;;;;;;5160307;27;20461;-33
2022/01/24 10:10:46;;;;;;;24.85;13.73;;;-0.70;67.10;;;;;;5160177;27;20079;-35
2022/01/24 10:16:37;;;;;;;317.55;174.98;;;-0.70;66.90;;;;;;5160232;27;20041;-34
2022/01/24 10:19:05;;;;;;;59.60;25.60;;;-0.70;66.80;;;;;;5160622;27;20038;-36
2022/01/24 10:22:00;;;;;;;33.40;17.38;;;-0.70;66.60;;;;;;5160195;27;20097;-33
2022/01/24 10:24:40;;;;;;;24.35;11.93;;;-0.70;66.90;;;;;;5159810;27;20049;-35
2022/01/24 10:27:13;;;;;;;25.55;12.80;;;-0.70;67.00;;;;;;5160255;27;20030;-33
2022/01/24 10:29:49;;;;;;;26.05;12.02;;;-0.70;67.00;;;;;;5159584;27;20019;-34
2022/01/24 10:32:41;;;;;;;22.10;12.32;;;-0.70;67.00;;;;;;5159943;27;20034;-34
2022/01/24 10:35:23;;;;;;;35.97;16.30;;;-0.70;67.20;;;;;;5159285;27;20026;-34
2022/01/24 10:38:12;;;;;;;38.25;17.67;;;-0.60;67.30;;;;;;5159801;27;20034;-33
2022/01/24 10:41:06;;;;;;;27.00;13.40;;;-0.60;67.40;;;;;;5143010;27;20081;-34
2022/01/24 10:43:32;;;;;;;28.67;13.68;;;-0.60;67.00;;;;;;5160089;27;20054;-33
2022/01/24 10:45:58;;;;;;;23.95;11.95;;;-0.50;67.10;;;;;;5159364;27;20123;-34
2022/01/24 10:48:30;;;;;;;26.13;12.27;;;-0.50;67.30;;;;;;5160096;27;20069;-34
2022/01/24 10:51:17;;;;;;;145.52;57.17;;;-0.60;67.00;;;;;;5159231;27;20022;-33
2022/01/24 10:53:47;;;;;;;25.10;12.80;;;-0.50;67.00;;;;;;5159444;27;20054;-34
2022/01/24 10:56:39;;;;;;;38.53;16.85;;;-0.60;67.20;;;;;;5159068;27;20034;-35
2022/01/24 10:59:15;;;;;;;75.80;31.00;;;-0.60;67.40;;;;;;5159741;27;20034;-35
2022/01/24 11:01:49;;;;;;;25.05;11.98;;;-0.50;67.30;;;;;;5159419;27;20031;-34
2022/01/24 11:04:16;;;;;;;26.77;12.73;;;-0.60;67.30;;;;;;5158776;27;20031;-33
2022/01/24 11:06:50;;;;;;;22.13;11.93;;;-0.60;67.50;;;;;;5159263;27;20046;-35
2022/01/24 11:09:19;;;;;;;35.45;16.92;;;-0.50;67.80;;;;;;5158632;27;20050;-33
2022/01/24 11:11:46;;;;;;;48.75;26.15;;;-0.50;67.60;;;;;;5159236;27;20039;-36
2022/01/24 11:14:16;;;;;;;31.80;15.07;;;-0.60;67.40;;;;;;5159294;27;20083;-35
2022/01/24 11:16:42;;;;;;;23.73;13.50;;;-0.50;67.70;;;;;;5158881;27;20037;-33
2022/01/24 11:19:14;;;;;;;41.88;19.00;;;-0.50;67.60;;;;;;5158865;27;20395;-34
2022/01/24 11:21:43;;;;;;;34.17;17.52;;;-0.50;67.60;;;;;;5159112;27;20026;-33
2022/01/24 11:24:16;;;;;;;31.75;14.77;;;-0.50;67.80;;;;;;5159075;27;20066;-33
2022/01/24 11:26:42;;;;;;;39.33;18.30;;;-0.50;67.90;;;;;;5158995;27;20209;-35
2022/01/24 11:29:08;;;;;;;34.55;15.35;;;-0.50;67.80;;;;;;5159127;27;20510;-35
2022/01/24 11:31:59;;;;;;;34.67;14.02;;;-0.50;67.90;;;;;;5158738;27;20353;-39
2022/01/24 11:34:39;;;;;;;28.93;15.00;;;-0.60;68.00;;;;;;5124791;27;20107;-33
2022/01/24 11:37:07;;;;;;;32.30;15.32;;;-0.60;68.00;;;;;;5137649;27;20252;-34
2022/01/24 11:39:34;;;;;;;44.58;23.52;;;-0.70;68.10;;;;;;5137402;27;20114;-34
2022/01/24 11:42:02;;;;;;;28.73;13.88;;;-0.70;68.30;;;;;;5137837;27;20098;-33
2022/01/24 11:44:49;;;;;;;30.33;14.80;;;-0.70;68.50;;;;;;5137350;27;20023;-33
2022/01/24 11:47:23;;;;;;;28.40;13.68;;;-0.70;68.60;;;;;;5137853;27;20035;-33
2022/01/24 11:49:53;;;;;;;42.53;19.08;;;-0.70;68.90;;;;;;5137230;27;20027;-35
2022/01/24 11:52:28;;;;;;;30.67;14.05;;;-0.70;69.10;;;;;;5137753;27;20133;-33
2022/01/24 11:55:21;;;;;;;29.77;15.13;;;-0.70;69.00;;;;;;5137108;27;20035;-36
2022/01/24 11:57:49;;;;;;;32.20;13.95;;;-0.70;68.90;;;;;;5137246;27;20338;-32
2022/01/24 12:00:17;;;;;;;30.40;14.60;;;-0.60;68.90;;;;;;5137117;27;20035;-35
2022/01/24 12:03:16;;;;;;;28.48;13.70;;;-0.60;69.00;;;;;;5138055;27;20035;-33
2022/01/24 12:05:50;;;;;;;26.45;13.38;;;-0.60;68.80;;;;;;5100515;27;20043;-33
2022/01/24 12:08:33;;;;;;;37.75;20.60;;;-0.60;68.80;;;;;;5157072;27;20051;-34
2022/01/24 12:11:14;;;;;;;47.88;23.05;;;-0.50;68.90;;;;;;5116177;28;20131;-34
2022/01/24 12:13:49;;;;;;;30.02;15.15;;;-0.60;68.90;;;;;;5116483;28;20036;-33
2022/01/24 12:16:16;;;;;;;32.28;17.58;;;-0.60;69.00;;;;;;5116452;28;20032;-33
2022/01/24 12:18:43;;;;;;;34.00;14.45;;;-0.60;69.10;;;;;;5115973;28;20226;-34
2022/01/24 12:21:17;;;;;;;27.98;13.73;;;-0.60;69.20;;;;;;5116274;28;20030;-33
2022/01/24 12:23:49;;;;;;;32.10;14.25;;;-0.60;69.20;;;;;;5116366;28;20032;-33
2022/01/24 12:26:15;;;;;;;31.67;14.95;;;-0.60;69.30;;;;;;5116018;28;20153;-33
2022/01/24 12:28:43;;;;;;;30.10;15.98;;;-0.60;69.30;;;;;;5116464;28;20437;-33
2022/01/24 12:31:16;;;;;;;32.25;14.32;;;-0.60;69.40;;;;;;5116395;28;20031;-33
2022/01/24 12:33:57;;;;;;;35.15;18.20;;;-0.60;69.60;;;;;;5116345;28;20066;-33
2022/01/24 12:36:48;;;;;;;29.55;14.57;;;-0.60;69.60;;;;;;5115856;28;20036;-33
2022/01/24 12:39:27;;;;;;;28.77;13.95;;;-0.60;69.60;;;;;;5115954;28;20035;-33
2022/01/24 12:42:10;;;;;;;29.38;14.15;;;-0.60;69.50;;;;;;5116298;28;20055;-34
2022/01/24 12:47:11;;;;;;;33.28;17.38;;;-0.60;69.20;;;;;;5115990;28;20023;-38
2022/01/24 12:49:37;;;;;;;26.98;14.23;;;-0.60;69.30;;;;;;5115623;28;20022;-33
2022/01/24 12:52:06;;;;;;;28.10;16.50;;;-0.50;69.10;;;;;;5116076;28;20020;-34
2022/01/24 12:54:34;;;;;;;28.67;14.43;;;-0.50;68.90;;;;;;5116346;28;20042;-33
2022/01/24 12:57:06;;;;;;;29.05;14.23;;;-0.60;68.60;;;;;;5116148;28;20435;-33
2022/01/24 12:59:32;;;;;;;31.33;15.48;;;-0.60;68.60;;;;;;5115979;28;20326;-33
2022/01/24 13:02:01;;;;;;;28.92;15.07;;;-0.60;68.70;;;;;;5115808;28;20108;-33
2022/01/24 13:04:38;;;;;;;31.65;14.50;;;-0.60;68.90;;;;;;5115651;28;20055;-33
2022/01/24 13:07:08;;;;;;;31.63;15.43;;;-0.60;69.00;;;;;;5115995;28;20103;-34
2022/01/24 13:09:35;;;;;;;30.98;13.95;;;-0.60;69.10;;;;;;5115202;28;20062;-33
2022/01/24 13:12:07;;;;;;;30.80;14.32;;;-0.70;69.20;;;;;;5115224;28;20024;-33
2022/01/24 13:25:25;;;;;;;32.60;14.20;;;-0.80;69.50;;;;;;5161072;27;20026;-33
2022/01/24 13:27:51;;;;;;;30.80;14.02;;;-0.80;69.70;;;;;;5161169;27;20430;-33
2022/01/24 13:30:32;;;;;;;29.90;13.90;;;-0.90;69.60;;;;;;5160705;27;20065;-34
2022/01/24 13:33:03;;;;;;;28.60;14.63;;;-0.90;69.70;;;;;;5161434;27;20035;-33
2022/01/24 13:35:34;;;;;;;28.13;13.38;;;-1.00;69.80;;;;;;5161156;27;20299;-33
2022/01/24 13:38:11;;;;;;;30.90;13.80;;;-1.00;69.90;;;;;;5160760;27;20387;-33
2022/01/24 13:40:59;;;;;;;45.63;21.40;;;-1.00;69.90;;;;;;5160967;27;20045;-33
2022/01/24 13:44:07;;;;;;;33.95;17.05;;;-1.10;69.80;;;;;;5161109;27;20023;-34
2022/01/24 13:46:40;;;;;;;26.95;14.05;;;-1.10;69.90;;;;;;5160677;27;20023;-33
2022/01/24 13:49:11;;;;;;;55.22;24.85;;;-1.20;70.00;;;;;;5140829;27;20424;-33
2022/01/24 13:51:44;;;;;;;26.33;13.13;;;-1.20;70.20;;;;;;5139987;27;20110;-34
2022/01/24 13:54:16;;;;;;;42.70;21.85;;;-1.20;70.20;;;;;;5140314;27;20415;-34
2022/01/24 13:56:44;;;;;;;25.02;12.77;;;-1.30;70.30;;;;;;5140415;27;20035;-33
2022/01/24 13:59:14;;;;;;;26.08;13.10;;;-1.30;70.30;;;;;;5139958;27;20023;-33
2022/01/24 14:01:51;;;;;;;23.85;12.27;;;-1.30;70.20;;;;;;5139518;27;20404;-34
2022/01/24 14:04:29;;;;;;;55.42;25.63;;;-1.20;70.30;;;;;;5149107;27;20041;-33
2022/01/24 14:06:57;;;;;;;29.38;14.43;;;-1.30;70.20;;;;;;5160317;27;20026;-32
2022/01/24 14:09:32;;;;;;;26.45;13.68;;;-1.30;70.30;;;;;;5159876;27;20095;-33
2022/01/24 14:11:57;;;;;;;28.67;14.00;;;-1.20;70.60;;;;;;5160316;27;20022;-33
2022/01/24 14:14:29;;;;;;;27.50;13.73;;;-1.20;70.50;;;;;;5160299;27;20033;-34
2022/01/24 14:17:10;;;;;;;26.90;12.93;;;-1.20;70.50;;;;;;5160087;27;20072;-33
2022/01/24 14:19:36;;;;;;;;;;;-1.20;70.60;;;;;;5160626;27;20055;-33
2022/01/24 14:22:12;;;;;;;28.35;13.48;;;-1.20;70.60;;;;;;5160263;27;19949;-34
2022/01/24 14:24:51;;;;;;;30.80;14.65;;;-1.20;70.80;;;;;;5159730;27;20136;-34
2022/01/24 14:27:35;;;;;;;36.17;17.08;;;-1.20;71.00;;;;;;5160002;27;20027;-35
2022/01/24 14:30:13;;;;;;;21.95;11.10;;;-1.20;71.10;;;;;;5159588;27;20026;-34
2022/01/24 14:32:48;;;;;;;22.38;11.40;;;-1.20;71.40;;;;;;5141596;27;20031;-34
2022/01/24 14:35:20;;;;;;;25.65;11.57;;;-1.20;71.20;;;;;;5159963;27;20025;-35
2022/01/24 14:37:51;;;;;;;24.33;12.23;;;-1.20;71.20;;;;;;5160165;27;20326;-34
2022/01/24 14:40:33;;;;;;;;;;;-1.10;71.20;;;;;;5160187;27;20027;-34
2022/01/24 14:45:43;;;;;;;23.83;11.80;;;-1.20;71.10;;;;;;5159817;27;20074;-33
2022/01/24 14:48:09;;;;;;;23.33;11.00;;;-1.20;71.20;;;;;;5159885;27;20109;-33
2022/01/24 14:50:36;;;;;;;24.02;12.48;;;-1.20;71.20;;;;;;5159526;27;20268;-35
2022/01/24 14:53:04;;;;;;;27.05;15.82;;;-1.20;71.20;;;;;;5159793;27;20119;-34
2022/01/24 14:55:31;;;;;;;27.95;15.45;;;-1.20;71.30;;;;;;5155799;27;20287;-33
2022/01/24 14:57:56;;;;;;;34.85;18.70;;;-1.20;71.40;;;;;;5150030;27;20385;-34
2022/01/24 15:00:23;;;;;;;25.85;14.18;;;-1.20;71.50;;;;;;5159404;27;20057;-34
2022/01/24 15:02:50;;;;;;;31.40;16.27;;;-1.20;71.50;;;;;;5159598;27;20030;-33
2022/01/24 15:05:17;;;;;;;27.27;14.10;;;-1.20;71.60;;;;;;5159324;27;20031;-33
2022/01/24 15:07:43;;;;;;;26.10;13.73;;;-1.10;71.70;;;;;;5159111;27;20050;-34
2022/01/24 15:10:09;;;;;;;24.95;12.32;;;-1.10;71.50;;;;;;5159353;27;20053;-34
2022/01/24 15:12:42;;;;;;;24.27;12.60;;;-1.10;71.00;;;;;;5159203;27;20069;-33
2022/01/24 15:15:10;;;;;;;24.10;12.27;;;-1.10;70.90;;;;;;5159236;27;20095;-34
2022/01/24 15:25:48;;;;;;;22.27;11.30;;;-1.30;70.40;;;;;;5158485;27;20425;-33
2022/01/24 15:28:17;;;;;;;25.42;13.45;;;-1.30;70.40;;;;;;5147434;27;20039;-34
2022/01/24 15:30:43;;;;;;;19.67;9.55;;;-1.40;70.30;;;;;;5158350;27;20034;-34
2022/01/24 15:33:09;;;;;;;22.95;11.93;;;-1.40;70.50;;;;;;5158831;27;20103;-33
2022/01/24 15:35:35;;;;;;;21.63;10.88;;;-1.40;70.60;;;;;;5158740;27;20030;-37
2022/01/24 15:38:04;;;;;;;29.65;15.05;;;-1.40;70.60;;;;;;5158977;27;20406;-34
2022/01/24 15:40:31;;;;;;;23.60;11.38;;;-1.50;70.40;;;;;;5158667;27;20105;-34
2022/01/24 15:43:04;;;;;;;22.00;11.82;;;-1.50;70.60;;;;;;5158130;27;20035;-33
2022/01/24 15:48:16;;;;;;;33.78;12.80;;;-1.50;70.70;;;;;;5143996;27;20051;-33
2022/01/24 15:50:42;;;;;;;26.77;13.50;;;-1.50;71.40;;;;;;5158383;27;20087;-35
2022/01/24 15:53:08;;;;;;;19.90;11.93;;;-1.50;70.90;;;;;;5158420;27;20038;-34
2022/01/24 15:55:39;;;;;;;26.67;14.23;;;-1.50;71.00;;;;;;5158126;27;20524;-34
2022/01/24 15:58:07;;;;;;;18.38;10.25;;;-1.50;71.10;;;;;;5158077;27;20451;-33